Time;durP1;ratioP1;P1;durP2;ratioP2;P2;SDS_P1;SDS_P2;PMS_P1;PMS_P2;Temp;Humidity;BMP_temperature;BMP_pressure;BME280_temperature;BME280_humidity;BME280_pressure;Samples;Min_cycle;Max_cycle;Signal;HPM_P1;HPM_P2
2024/03/17 00:00:00;;;;;;;;;2.00;2.00;;;;;6.72;89.37;100479.79;111180;244;160628;-53
2024/03/17 00:02:40;;;;;;;;;2.33;2.00;;;;;6.71;89.41;100476.51;111313;258;40239;-53
2024/03/17 00:05:21;;;;;;;;;2.00;1.00;;;;;6.65;89.38;100480.40;110621;245;708339;-54
2024/03/17 00:08:05;;;;;;;;;1.00;1.00;;;;;6.63;89.12;100479.89;111297;258;39878;-55
2024/03/17 00:10:52;;;;;;;;;1.50;1.00;;;;;6.59;89.00;100484.02;111345;258;41276;-54
2024/03/17 00:13:34;;;;;;;;;5.00;3.00;;;;;6.53;88.60;100490.36;111233;245;160027;-55
2024/03/17 00:16:18;;;;;;;;;3.00;2.00;;;;;6.54;88.50;100495.15;111279;258;40981;-55
2024/03/17 00:19:00;;;;;;;;;1.25;1.00;;;;;6.49;88.54;100494.62;111160;245;160995;-55
2024/03/17 00:21:45;;;;;;;;;2.67;2.00;;;;;6.46;88.44;100494.35;111302;258;39301;-53
2024/03/17 00:24:22;;;;;;;;;1.00;1.00;;;;;6.41;88.05;100495.76;111202;244;161067;-52
2024/03/17 00:27:01;;;;;;;;;1.00;1.00;;;;;6.39;87.92;100494.61;111204;258;39718;-51
2024/03/17 00:29:46;;;;;;;;;2.00;1.00;;;;;6.39;87.48;100494.52;111161;244;161210;-52
2024/03/17 00:32:24;;;;;;;;;2.00;1.00;;;;;6.43;87.08;100496.65;111242;258;39294;-52
2024/03/17 00:35:04;;;;;;;;;1.00;1.00;;;;;6.41;86.80;100494.05;111243;258;39912;-52
2024/03/17 00:37:42;;;;;;;;;1.00;1.00;;;;;6.36;86.62;100500.09;111233;258;40927;-52
2024/03/17 00:40:19;;;;;;;;;1.00;1.00;;;;;6.35;86.03;100498.02;111305;258;40345;-53
2024/03/17 00:42:56;;;;;;;;;1.00;1.00;;;;;6.28;85.67;100497.37;111078;244;160435;-53
2024/03/17 00:45:37;;;;;;;;;1.00;1.00;;;;;6.19;84.99;100502.91;111290;258;38989;-51
2024/03/17 00:48:16;;;;;;;;;1.00;1.00;;;;;6.09;84.70;100512.27;111158;245;160512;-52
2024/03/17 00:50:59;;;;;;;;;4.00;3.00;;;;;6.04;84.75;100510.03;111272;258;40091;-52
2024/03/17 00:53:41;;;;;;;;;2.00;1.33;;;;;6.02;84.78;100507.90;111180;244;161662;-52
2024/03/17 00:56:20;;;;;;;;;2.00;2.00;;;;;6.03;84.86;100508.24;111325;258;39786;-52
2024/03/17 00:58:57;;;;;;;;;2.25;1.50;;;;;6.02;84.77;100514.02;111356;258;40024;-52
2024/03/17 01:01:44;;;;;;;;;2.00;1.00;;;;;5.93;84.49;100512.95;111246;243;41388;-52
2024/03/17 01:04:22;;;;;;;;;0.33;0.00;;;;;5.89;84.49;100516.06;111267;257;38996;-53
2024/03/17 01:07:03;;;;;;;;;1.00;1.00;;;;;5.88;84.52;100512.13;111237;244;160264;-52
2024/03/17 01:09:41;;;;;;;;;1.00;1.00;;;;;5.83;83.90;100514.73;111361;258;39361;-52
2024/03/17 01:12:19;;;;;;;;;1.00;1.00;;;;;5.70;83.49;100515.11;111232;244;160171;-52
2024/03/17 01:14:58;;;;;;;;;1.00;0.67;;;;;5.57;83.39;100521.30;111294;258;39385;-51
2024/03/17 01:17:37;;;;;;;;;1.00;1.00;;;;;5.47;83.52;100521.67;111170;244;160475;-51
2024/03/17 01:20:13;;;;;;;;;0.00;0.00;;;;;5.31;83.49;100525.65;111356;258;39929;-51
2024/03/17 01:22:49;;;;;;;;;1.00;1.00;;;;;5.14;83.29;100526.21;111321;258;40053;-50
2024/03/17 01:25:29;;;;;;;;;0.00;0.00;;;;;5.07;83.43;100523.80;111185;244;161460;-52
2024/03/17 01:28:08;;;;;;;;;0.50;0.50;;;;;5.00;83.28;100523.24;111220;258;40055;-52
2024/03/17 01:30:47;;;;;;;;;1.00;0.67;;;;;4.92;83.00;100523.86;111149;244;160980;-53
2024/03/17 01:33:26;;;;;;;;;1.00;1.00;;;;;4.87;83.24;100525.00;111193;258;40126;-53
2024/03/17 01:36:06;;;;;;;;;2.00;1.00;;;;;4.81;83.46;100525.59;111210;244;160314;-55
2024/03/17 01:38:45;;;;;;;;;1.00;1.00;;;;;4.74;83.63;100527.96;111324;258;40888;-55
2024/03/17 01:41:19;;;;;;;;;0.00;0.00;;;;;4.67;83.74;100526.70;111191;244;160452;-52
2024/03/17 01:44:01;;;;;;;;;2.00;1.00;;;;;4.65;83.67;100528.37;111244;258;40718;-52
2024/03/17 01:46:44;;;;;;;;;1.00;1.00;;;;;4.62;83.79;100529.91;111253;258;40688;-52
2024/03/17 01:49:27;;;;;;;;;1.00;1.00;;;;;4.56;83.63;100531.05;111262;244;160415;-53
2024/03/17 01:52:08;;;;;;;;;1.00;1.00;;;;;4.49;83.75;100535.30;111258;258;40006;-53
2024/03/17 01:54:45;;;;;;;;;2.00;2.00;;;;;4.40;83.70;100535.67;111251;244;160433;-53
2024/03/17 01:57:26;;;;;;;;;1.00;1.00;;;;;4.33;84.00;100534.88;111307;258;39425;-53
2024/03/17 02:00:08;;;;;;;;;2.00;1.00;;;;;4.37;84.14;100531.65;111231;244;160338;-52
2024/03/17 02:02:46;;;;;;;;;1.00;1.00;;;;;4.42;84.23;100531.83;111234;258;40043;-52
2024/03/17 02:05:28;;;;;;;;;2.00;1.00;;;;;4.46;84.37;100532.19;111204;258;161412;-53
2024/03/17 02:08:02;;;;;;;;;2.00;2.00;;;;;4.49;84.28;100536.50;111270;258;39648;-53
2024/03/17 02:10:45;;;;;;;;;3.00;2.00;;;;;4.52;84.48;100537.11;111343;258;39602;-55
2024/03/17 02:13:25;;;;;;;;;1.00;0.33;;;;;4.52;84.34;100540.12;111163;244;161098;-55
2024/03/17 02:16:06;;;;;;;;;0.00;0.00;;;;;4.53;84.08;100542.20;111315;258;40111;-51
2024/03/17 02:18:46;;;;;;;;;2.00;1.00;;;;;4.56;84.29;100543.71;111128;244;161112;-52
2024/03/17 02:21:25;;;;;;;;;0.00;0.00;;;;;4.62;84.33;100541.30;111234;258;39634;-53
2024/03/17 02:24:05;;;;;;;;;1.00;1.00;;;;;4.69;84.43;100539.16;111100;244;161493;-53
2024/03/17 02:26:52;;;;;;;;;0.33;0.00;;;;;4.73;84.23;100543.96;111372;258;39901;-55
2024/03/17 02:29:28;;;;;;;;;1.00;1.00;;;;;4.77;84.17;100545.05;111290;244;160482;-51
2024/03/17 02:32:08;;;;;;;;;1.00;1.00;;;;;4.72;84.01;100541.39;111280;258;39571;-51
2024/03/17 02:34:44;;;;;;;;;1.00;0.00;;;;;4.67;83.85;100548.97;111326;258;41338;-53
2024/03/17 02:37:24;;;;;;;;;1.00;1.00;;;;;4.63;83.57;100546.02;111216;244;160755;-53
2024/03/17 02:40:05;;;;;;;;;1.00;1.00;;;;;4.54;83.73;100548.67;111297;258;39427;-50
2024/03/17 02:42:45;;;;;;;;;1.00;1.00;;;;;4.46;83.77;100552.37;111205;244;160144;-50
2024/03/17 02:45:21;;;;;;;;;2.00;1.00;;;;;4.34;83.65;100554.21;111316;258;41018;-52
2024/03/17 02:48:06;;;;;;;;;2.00;1.00;;;;;4.22;83.57;100557.20;111139;244;160353;-52
2024/03/17 02:50:51;;;;;;;;;2.67;1.67;;;;;4.09;83.51;100558.02;111311;258;40752;-54
2024/03/17 02:53:29;;;;;;;;;1.00;1.00;;;;;3.95;83.58;100560.94;111221;244;160573;-55
2024/03/17 02:56:08;;;;;;;;;2.00;1.00;;;;;3.87;83.70;100564.91;111316;258;41068;-53
2024/03/17 02:58:44;;;;;;;;;1.00;0.00;;;;;3.80;83.73;100567.48;111239;258;39302;-53
2024/03/17 03:01:25;;;;;;;;;1.00;0.75;;;;;3.82;83.86;100567.17;111125;244;161102;-53
2024/03/17 03:04:07;;;;;;;;;0.00;0.00;;;;;3.82;83.68;100566.08;111272;258;39449;-52
2024/03/17 03:06:50;;;;;;;;;4.67;2.67;;;;;3.87;83.80;100568.65;111208;244;161111;-54
2024/03/17 03:09:33;;;;;;;;;1.50;1.00;;;;;3.85;83.82;100567.98;111406;258;39200;-52
2024/03/17 03:12:11;;;;;;;;;2.00;1.00;;;;;3.80;84.00;100566.25;111130;244;161312;-52
2024/03/17 03:14:52;;;;;;;;;2.00;1.00;;;;;3.82;84.07;100566.41;111319;258;39385;-52
2024/03/17 03:17:33;;;;;;;;;1.00;1.00;;;;;3.84;84.08;100563.02;111219;244;161466;-52
2024/03/17 03:20:12;;;;;;;;;2.00;1.00;;;;;3.85;84.12;100562.45;111286;258;39747;-52
2024/03/17 03:22:50;;;;;;;;;1.00;1.00;;;;;3.87;84.22;100566.39;111343;258;39760;-52
2024/03/17 03:25:28;;;;;;;;;2.00;1.67;;;;;3.89;84.26;100566.36;111241;244;160197;-55
2024/03/17 03:28:07;;;;;;;;;1.00;1.00;;;;;3.87;84.45;100563.83;111318;258;39593;-54
2024/03/17 03:30:46;;;;;;;;;1.00;1.00;;;;;3.85;84.25;100566.16;111183;244;160255;-54
2024/03/17 03:33:27;;;;;;;;;1.00;0.67;;;;;3.75;84.24;100562.11;111289;258;39925;-54
2024/03/17 03:36:16;;;;;;;;;1.00;1.00;;;;;3.65;84.33;100561.11;111179;244;161110;-53
2024/03/17 03:38:54;;;;;;;;;1.00;0.50;;;;;3.59;84.16;100562.35;111245;258;39673;-52
2024/03/17 03:41:34;;;;;;;;;1.25;1.00;;;;;3.47;84.14;100559.74;111188;244;161264;-55
2024/03/17 03:44:14;;;;;;;;;1.00;1.00;;;;;3.35;84.19;100559.38;111221;258;39777;-55
2024/03/17 03:46:53;;;;;;;;;4.00;3.33;;;;;3.18;84.42;100560.09;111228;257;39222;-50
2024/03/17 03:49:37;;;;;;;;;1.00;1.00;;;;;3.08;84.51;100557.10;111120;248;161331;-52
2024/03/17 03:52:24;;;;;;;;;3.00;2.00;;;;;3.00;84.61;100556.59;111243;257;40343;-51
2024/03/17 03:55:04;;;;;;;;;2.50;2.00;;;;;3.00;85.03;100556.36;111120;244;161050;-51
2024/03/17 03:57:37;;;;;;;;;3.50;2.00;;;;;3.02;85.27;100555.52;111228;257;39873;-54
2024/03/17 04:00:14;;;;;;;;;1.00;1.00;;;;;3.04;85.42;100556.59;111161;244;160135;-51
2024/03/17 04:02:53;;;;;;;;;2.50;1.00;;;;;3.05;85.62;100558.98;111320;258;39392;-52
2024/03/17 04:05:34;;;;;;;;;1.00;1.00;;;;;3.12;85.87;100558.34;111165;244;160945;-53
2024/03/17 04:08:08;;;;;;;;;1.00;1.00;;;;;3.15;86.00;100553.80;111352;258;39447;-50
2024/03/17 04:10:49;;;;;;;;;2.00;2.00;;;;;3.20;86.18;100553.34;111388;258;39634;-51
2024/03/17 04:13:33;;;;;;;;;3.00;2.00;;;;;3.27;86.30;100552.64;111190;244;161099;-50
2024/03/17 04:16:12;;;;;;;;;0.33;0.33;;;;;3.36;86.38;100555.79;111307;258;40507;-50
2024/03/17 04:18:52;;;;;;;;;2.00;1.25;;;;;3.45;86.55;100557.45;111164;244;160984;-49
2024/03/17 04:21:36;;;;;;;;;2.00;1.00;;;;;3.54;86.41;100561.36;111261;258;39888;-51
2024/03/17 04:24:13;;;;;;;;;3.00;2.00;;;;;3.54;86.40;100564.38;111193;244;160433;-51
2024/03/17 04:26:54;;;;;;;;;4.67;3.00;;;;;3.61;86.41;100561.63;111241;258;40410;-51
2024/03/17 04:29:44;;;;;;;;;5.00;3.00;;;;;3.64;86.23;100560.10;111140;258;160585;-50
2024/03/17 04:32:30;;;;;;;;;2.00;2.00;;;;;3.67;86.11;100558.80;111269;258;40615;-50
2024/03/17 04:35:08;;;;;;;;;2.00;2.00;;;;;3.67;85.95;100562.48;111187;258;39677;-51
2024/03/17 04:37:44;;;;;;;;;1.67;1.00;;;;;3.68;85.83;100565.11;111226;258;40176;-54
2024/03/17 04:40:18;;;;;;;;;4.00;3.00;;;;;3.71;85.85;100569.77;111233;258;39278;-54
2024/03/17 04:42:53;;;;;;;;;1.50;1.00;;;;;3.67;85.64;100562.83;111080;243;160268;-55
2024/03/17 04:45:34;;;;;;;;;4.00;4.00;;;;;3.62;85.50;100563.56;111310;258;41056;-54
2024/03/17 04:48:10;;;;;;;;;2.00;1.33;;;;;3.48;85.21;100561.46;111143;244;160312;-51
2024/03/17 04:50:48;;;;;;;;;2.00;2.00;;;;;3.42;85.24;100564.69;111227;258;39737;-51
2024/03/17 04:53:26;;;;;;;;;2.33;1.67;;;;;3.39;85.42;100566.00;111237;244;162237;-50
2024/03/17 04:56:06;;;;;;;;;1.00;1.00;;;;;3.42;85.45;100568.41;111294;258;39829;-52
2024/03/17 04:58:45;;;;;;;;;1.00;1.00;;;;;3.48;85.52;100569.41;111268;258;39588;-52
2024/03/17 05:01:25;;;;;;;;;3.00;2.00;;;;;3.49;85.45;100568.67;111181;244;161299;-51
2024/03/17 05:04:02;;;;;;;;;3.00;2.00;;;;;3.49;85.30;100569.71;111257;257;39599;-51
2024/03/17 05:06:46;;;;;;;;;2.00;2.00;;;;;3.53;85.43;100568.82;111124;243;160464;-50
2024/03/17 05:09:22;;;;;;;;;3.00;3.00;;;;;3.56;85.46;100564.77;111248;257;40929;-52
2024/03/17 05:12:04;;;;;;;;;4.00;3.00;;;;;3.61;85.52;100567.86;111116;244;160322;-50
2024/03/17 05:14:42;;;;;;;;;3.00;2.00;;;;;3.64;85.42;100569.03;111274;257;40161;-54
2024/03/17 05:17:24;;;;;;;;;5.00;4.00;;;;;3.72;85.59;100571.13;111149;243;160467;-50
2024/03/17 05:20:03;;;;;;;;;4.00;3.00;;;;;3.79;85.52;100567.59;111189;257;41222;-52
2024/03/17 05:22:46;;;;;;;;;3.00;2.50;;;;;3.84;85.70;100568.89;111195;257;39115;-51
2024/03/17 05:25:29;;;;;;;;;3.33;2.67;;;;;3.90;85.86;100571.39;111121;244;161176;-52
2024/03/17 05:28:08;;;;;;;;;2.50;2.00;;;;;3.97;85.72;100570.17;111221;257;39312;-52
2024/03/17 05:30:50;;;;;;;;;4.00;3.50;;;;;4.09;85.83;100572.80;111179;244;161243;-54
2024/03/17 05:33:34;;;;;;;;;3.00;2.00;;;;;4.15;85.97;100572.77;111261;257;40138;-54
2024/03/17 05:36:10;;;;;;;;;4.00;2.00;;;;;4.19;86.02;100568.86;111212;257;161000;-54
2024/03/17 05:38:48;;;;;;;;;3.00;3.00;;;;;4.27;86.11;100570.02;111278;257;39514;-54
2024/03/17 05:41:25;;;;;;;;;3.00;2.00;;;;;4.44;85.95;100570.49;111340;247;160604;-49
2024/03/17 05:44:05;;;;;;;;;3.00;2.00;;;;;4.58;86.09;100572.94;111293;257;40461;-49
2024/03/17 05:46:41;;;;;;;;;4.00;3.00;;;;;4.78;85.86;100569.95;111344;257;39235;-50
2024/03/17 05:49:25;;;;;;;;;2.75;2.00;;;;;4.96;85.84;100570.80;111184;245;160262;-52
2024/03/17 05:52:02;;;;;;;;;5.00;3.50;;;;;5.09;85.74;100569.36;111246;257;40814;-53
2024/03/17 05:54:37;;;;;;;;;5.00;3.00;;;;;5.48;86.00;100568.83;111201;244;160445;-51
2024/03/17 05:57:22;;;;;;;;;2.00;1.00;;;;;6.87;86.70;100558.54;111361;257;40431;-51
2024/03/17 06:00:00;;;;;;;;;3.25;3.00;;;;;8.75;85.42;100552.61;111091;245;161028;-51
2024/03/17 06:02:38;;;;;;;;;6.00;4.00;;;;;8.51;83.39;100558.73;111272;257;41131;-52
2024/03/17 06:05:17;;;;;;;;;5.00;4.00;;;;;7.98;82.93;100566.01;111198;244;160761;-53
2024/03/17 06:07:55;;;;;;;;;5.67;5.00;;;;;7.59;82.31;100561.80;111224;257;39902;-51
2024/03/17 06:10:38;;;;;;;;;5.00;4.00;;;;;7.27;82.13;100564.59;111306;257;40393;-54
2024/03/17 06:13:15;;;;;;;;;5.00;4.00;;;;;7.12;82.34;100569.85;111139;244;161030;-54
2024/03/17 06:15:49;;;;;;;;;4.00;3.00;;;;;7.06;82.03;100565.44;111321;257;40200;-54
2024/03/17 06:18:30;;;;;;;;;6.00;5.00;;;;;7.07;82.02;100568.77;111218;245;160417;-55
2024/03/17 06:21:17;;;;;;;;;5.00;4.00;;;;;7.22;81.67;100567.91;111284;257;40603;-51
2024/03/17 06:23:55;;;;;;;;;4.00;3.00;;;;;7.30;81.47;100571.44;111117;257;161043;-51
2024/03/17 06:26:34;;;;;;;;;3.00;2.00;;;;;7.37;81.23;100565.48;111325;257;39410;-54
2024/03/17 06:29:20;;;;;;;;;4.00;3.00;;;;;7.40;80.44;100567.82;111360;257;39520;-55
2024/03/17 06:32:01;;;;;;;;;5.00;4.00;;;;;7.50;80.23;100566.39;111268;257;40107;-53
2024/03/17 06:34:37;;;;;;;;;4.75;4.00;;;;;7.46;80.01;100570.58;111352;257;39831;-52
2024/03/17 06:37:18;;;;;;;;;4.00;3.00;;;;;7.35;79.86;100570.89;111190;243;160290;-54
2024/03/17 06:39:54;;;;;;;;;6.00;5.00;;;;;7.29;79.80;100569.96;111335;257;40006;-54
2024/03/17 06:42:40;;;;;;;;;4.33;3.33;;;;;7.19;79.45;100571.83;111224;246;161628;-51
2024/03/17 06:45:20;;;;;;;;;3.00;3.00;;;;;6.97;79.13;100576.25;111383;257;39556;-52
2024/03/17 06:48:01;;;;;;;;;4.00;3.00;;;;;6.92;78.93;100574.48;111286;244;160518;-53
2024/03/17 06:50:39;;;;;;;;;4.00;3.00;;;;;6.93;78.95;100576.77;111301;257;39899;-50
2024/03/17 06:53:15;;;;;;;;;3.00;3.00;;;;;7.11;78.19;100574.41;111225;257;39643;-51
2024/03/17 06:55:57;;;;;;;;;4.50;3.00;;;;;7.23;78.44;100573.81;111104;257;40616;-52
2024/03/17 06:58:35;;;;;;;;;4.00;3.00;;;;;7.28;78.24;100574.03;111110;257;40481;-51
2024/03/17 07:01:10;;;;;;;;;5.00;4.00;;;;;7.30;77.89;100574.95;111307;257;160460;-55
2024/03/17 07:04:02;;;;;;;;;5.00;3.00;;;;;7.30;77.99;100577.52;111316;257;39849;-55
2024/03/17 07:06:43;;;;;;;;;4.00;2.00;;;;;7.25;77.60;100577.79;111087;243;160443;-53
2024/03/17 07:09:25;;;;;;;;;5.00;4.00;;;;;7.27;77.75;100574.70;111232;257;39677;-53
2024/03/17 07:12:03;;;;;;;;;3.00;3.00;;;;;7.37;77.69;100576.07;111158;244;160650;-52
2024/03/17 07:14:39;;;;;;;;;5.00;3.00;;;;;7.45;77.37;100578.84;111268;257;39874;-51
2024/03/17 07:17:16;;;;;;;;;2.00;2.00;;;;;7.46;76.70;100577.05;111256;257;39092;-51
2024/03/17 07:19:57;;;;;;;;;4.00;2.33;;;;;7.45;76.59;100579.02;111344;257;40144;-55
2024/03/17 07:22:38;;;;;;;;;2.00;2.00;;;;;7.47;76.44;100583.10;111343;257;39706;-54
2024/03/17 07:25:13;;;;;;;;;2.00;2.00;;;;;7.53;75.98;100585.65;111309;244;160200;-51
2024/03/17 07:27:49;;;;;;;;;3.00;3.00;;;;;7.54;75.68;100585.67;111284;257;40586;-52
2024/03/17 07:30:24;;;;;;;;;4.67;3.00;;;;;7.56;75.66;100590.33;111069;243;160749;-51
2024/03/17 07:33:04;;;;;;;;;2.00;2.00;;;;;7.59;75.62;100592.31;111172;257;39718;-52
2024/03/17 07:35:47;;;;;;;;;3.00;3.00;;;;;7.75;75.45;100594.89;111114;244;160243;-52
2024/03/17 07:38:26;;;;;;;;;3.00;2.00;;;;;7.84;75.62;100595.14;111230;257;39029;-53
2024/03/17 07:41:05;;;;;;;;;4.00;3.00;;;;;7.95;75.27;100595.74;111201;257;39862;-52
2024/03/17 07:43:45;;;;;;;;;3.00;3.00;;;;;7.93;75.24;100596.30;111100;244;160162;-53
2024/03/17 07:46:22;;;;;;;;;4.00;3.00;;;;;7.99;75.14;100595.52;111341;257;40751;-55
2024/03/17 07:48:59;;;;;;;;;4.00;3.00;;;;;8.01;74.88;100592.21;111279;243;160054;-55
2024/03/17 07:51:34;;;;;;;;;4.00;3.00;;;;;8.05;74.72;100595.68;111366;257;39082;-55
2024/03/17 07:54:11;;;;;;;;;5.00;4.00;;;;;8.08;74.36;100594.67;111249;243;160284;-55
2024/03/17 07:56:51;;;;;;;;;2.50;2.00;;;;;8.10;74.18;100594.77;111383;258;39377;-55
2024/03/17 07:59:31;;;;;;;;;4.00;3.00;;;;;8.22;74.11;100594.19;111307;246;160822;-52
2024/03/17 08:02:15;;;;;;;;;2.00;2.00;;;;;8.45;74.16;100594.60;111270;257;40187;-53
2024/03/17 08:04:57;;;;;;;;;3.00;2.33;;;;;8.66;73.95;100595.67;110753;257;742374;-53
2024/03/17 08:07:37;;;;;;;;;6.00;4.00;;;;;8.87;73.73;100590.38;111131;243;160641;-53
2024/03/17 08:10:12;;;;;;;;;4.00;3.00;;;;;8.99;73.46;100585.84;111298;257;40096;-54
2024/03/17 08:12:50;;;;;;;;;3.50;3.00;;;;;9.01;72.81;100588.86;111113;243;160466;-52
2024/03/17 08:15:32;;;;;;;;;4.00;3.00;;;;;9.03;72.05;100587.88;111303;257;39880;-50
2024/03/17 08:18:09;;;;;;;;;4.00;3.00;;;;;8.93;72.01;100591.92;111129;243;160633;-50
2024/03/17 08:20:46;;;;;;;;;4.00;4.00;;;;;8.84;71.85;100589.82;111269;257;41374;-54
2024/03/17 08:23:26;;;;;;;;;4.00;3.00;;;;;8.75;70.99;100587.27;111151;257;161236;-56
2024/03/17 08:26:05;;;;;;;;;4.00;3.00;;;;;8.64;71.80;100586.23;111181;257;40008;-52
2024/03/17 08:28:44;;;;;;;;;6.00;5.00;;;;;8.62;71.57;100587.50;111272;257;39190;-52
2024/03/17 08:31:26;;;;;;;;;5.00;4.00;;;;;8.59;71.00;100588.21;111110;244;160515;-53
2024/03/17 08:34:07;;;;;;;;;5.00;4.00;;;;;8.61;70.98;100588.30;111267;257;40230;-53
2024/03/17 08:36:49;;;;;;;;;3.00;2.50;;;;;8.54;71.08;100590.34;111194;243;160827;-55
2024/03/17 08:39:27;;;;;;;;;3.00;3.00;;;;;8.56;71.27;100593.90;111321;257;39455;-52
2024/03/17 08:42:01;;;;;;;;;5.00;4.00;;;;;8.65;71.05;100588.84;111103;257;160759;-52
2024/03/17 08:44:40;;;;;;;;;4.00;3.25;;;;;8.72;70.98;100592.21;111215;257;38999;-51
2024/03/17 08:47:19;;;;;;;;;4.00;4.00;;;;;8.72;70.14;100593.70;111250;259;40152;-51
2024/03/17 08:49:56;;;;;;;;;4.67;4.00;;;;;8.76;70.29;100590.59;110988;260;39950;-55
2024/03/17 08:52:31;;;;;;;;;4.50;4.50;;;;;8.66;69.95;100592.48;111415;259;40248;-56
2024/03/17 08:55:13;;;;;;;;;3.50;3.50;;;;;8.56;69.82;100593.23;111001;246;160672;-55
2024/03/17 08:57:56;;;;;;;;;4.00;3.67;;;;;8.33;69.65;100597.14;111350;259;39878;-55
2024/03/17 09:00:36;;;;;;;;;6.00;5.00;;;;;8.09;70.00;100595.48;111039;259;160545;-56
2024/03/17 09:03:17;;;;;;;;;5.00;4.00;;;;;7.89;70.00;100599.27;111184;259;39700;-55
2024/03/17 09:06:00;;;;;;;;;5.00;4.00;;;;;7.68;70.20;100602.45;111091;245;160499;-51
2024/03/17 09:08:36;;;;;;;;;4.67;4.00;;;;;7.43;70.30;100604.07;111081;259;39959;-49
2024/03/17 09:11:15;;;;;;;;;3.00;2.00;;;;;7.21;70.47;100610.05;111236;259;39962;-51
2024/03/17 09:13:50;;;;;;;;;3.00;3.00;;;;;7.01;70.69;100621.02;110902;247;39853;-52
2024/03/17 09:16:33;;;;;;;;;4.50;4.50;;;;;6.77;71.53;100623.17;111262;259;39200;-52
2024/03/17 09:19:10;;;;;;;;;6.00;5.00;;;;;6.56;72.16;100617.48;110860;249;160557;-53
2024/03/17 09:21:47;;;;;;;;;3.00;3.00;;;;;6.44;72.88;100617.34;111208;259;39770;-50
2024/03/17 09:24:24;;;;;;;;;4.25;3.00;;;;;6.49;73.55;100618.73;111088;246;160354;-52
2024/03/17 09:27:01;;;;;;;;;4.00;3.00;;;;;6.53;73.97;100616.92;111109;259;40499;-51
2024/03/17 09:29:35;;;;;;;;;3.00;3.00;;;;;6.68;74.08;100617.82;111218;246;160564;-54
2024/03/17 09:32:17;;;;;;;;;3.00;2.00;;;;;6.79;73.80;100617.55;111196;259;40377;-55
2024/03/17 09:34:59;;;;;;;;;4.00;4.00;;;;;6.90;73.90;100614.59;111386;259;40151;-50
2024/03/17 09:37:38;;;;;;;;;3.75;3.00;;;;;7.17;74.29;100612.08;111075;244;161335;-50
2024/03/17 09:40:17;;;;;;;;;2.25;2.00;;;;;7.35;74.20;100610.70;111283;259;39494;-50
2024/03/17 09:43:02;;;;;;;;;2.00;2.00;;;;;7.52;74.25;100610.45;111097;244;160201;-50
2024/03/17 09:45:41;;;;;;;;;4.00;3.00;;;;;7.82;74.30;100609.02;111302;257;40575;-54
2024/03/17 09:48:19;;;;;;;;;3.00;3.00;;;;;8.14;74.10;100608.89;111253;243;160469;-55
2024/03/17 09:51:00;;;;;;;;;4.50;4.00;;;;;8.48;74.03;100611.05;111290;257;39504;-53
2024/03/17 09:53:46;;;;;;;;;3.00;2.00;;;;;8.74;73.75;100609.48;111191;245;164628;-53
2024/03/17 09:56:27;;;;;;;;;2.00;2.00;;;;;8.96;73.30;100612.24;111379;258;39452;-55
2024/03/17 09:59:07;;;;;;;;;2.00;2.00;;;;;9.05;72.36;100612.10;111252;258;39585;-53
2024/03/17 10:01:49;;;;;;;;;3.00;3.00;;;;;8.89;71.87;100614.30;111284;244;160376;-51
2024/03/17 10:04:40;;;;;;;;;5.00;4.00;;;;;8.76;71.93;100614.76;111249;257;40068;-53
2024/03/17 10:07:38;;;;;;;;;4.00;3.00;;;;;8.60;71.54;100607.50;111063;257;161030;-53
2024/03/17 10:10:17;;;;;;;;;2.00;2.00;;;;;8.41;71.42;100615.89;111230;257;41229;-53
2024/03/17 10:12:57;;;;;;;;;4.00;3.00;;;;;8.26;70.99;100614.73;111164;244;160251;-54
2024/03/17 10:15:36;;;;;;;;;4.00;4.00;;;;;8.09;71.12;100613.23;111266;257;39775;-51
2024/03/17 10:18:29;;;;;;;;;2.00;2.00;;;;;7.86;71.02;100612.68;111095;257;160460;-51
2024/03/17 10:21:27;;;;;;;;;2.67;2.00;;;;;7.78;71.25;100617.21;111272;257;40961;-51
2024/03/17 10:24:14;;;;;;;;;1.33;1.33;;;;;7.69;70.97;100614.73;111324;245;160357;-50
2024/03/17 10:26:53;;;;;;;;;3.00;3.00;;;;;7.70;71.23;100614.70;111279;257;40679;-56
2024/03/17 10:29:31;;;;;;;;;3.00;3.00;;;;;7.74;71.40;100611.86;111215;257;160507;-53
2024/03/17 10:32:17;;;;;;;;;3.00;3.00;;;;;7.76;71.62;100608.48;111252;257;40701;-53
2024/03/17 10:34:51;;;;;;;;;1.33;1.33;;;;;7.75;71.48;100605.83;111304;257;39627;-52
2024/03/17 10:37:27;;;;;;;;;2.75;2.25;;;;;7.80;71.70;100611.36;111110;244;160336;-52
2024/03/17 10:40:05;;;;;;;;;4.00;3.00;;;;;7.81;71.45;100615.03;111355;257;39446;-51
2024/03/17 10:42:48;;;;;;;;;5.00;3.75;;;;;7.73;71.40;100615.20;111126;244;160437;-52
2024/03/17 10:45:26;;;;;;;;;2.00;2.00;;;;;7.64;71.36;100616.71;111310;257;40958;-52
2024/03/17 10:48:08;;;;;;;;;4.00;3.00;;;;;7.54;71.35;100616.52;111144;244;160588;-52
2024/03/17 10:50:48;;;;;;;;;4.67;4.00;;;;;7.47;71.59;100620.94;111272;257;41291;-54
2024/03/17 10:53:27;;;;;;;;;3.00;3.00;;;;;7.37;71.62;100620.11;111213;257;40691;-54
2024/03/17 10:56:10;;;;;;;;;5.00;3.00;;;;;7.33;71.83;100618.78;111445;257;39025;-56
2024/03/17 10:58:52;;;;;;;;;2.00;2.00;;;;;7.23;71.67;100613.75;111308;257;39772;-56
2024/03/17 11:01:35;;;;;;;;;2.00;2.00;;;;;7.17;71.55;100618.23;111136;257;160431;-56
2024/03/17 11:04:21;;;;;;;;;1.67;1.00;;;;;7.07;71.37;100621.94;111215;257;41094;-56
2024/03/17 11:07:01;;;;;;;;;2.67;2.00;;;;;6.98;71.39;100622.15;111294;244;160508;-56
2024/03/17 11:09:48;;;;;;;;;0.00;0.00;;;;;6.98;71.32;100625.83;111258;257;39801;-53
2024/03/17 11:12:47;;;;;;;;;2.00;1.00;;;;;6.96;71.28;100624.55;111150;243;160382;-53
2024/03/17 11:15:42;;;;;;;;;1.00;1.00;;;;;6.97;71.31;100625.73;111286;257;40264;-55
2024/03/17 11:18:42;;;;;;;;;2.00;2.00;;;;;6.87;70.73;100628.86;111097;244;161314;-54
2024/03/17 11:21:34;;;;;;;;;3.00;3.00;;;;;6.86;71.10;100626.11;111285;257;40116;-52
2024/03/17 11:24:24;;;;;;;;;2.00;2.00;;;;;6.79;70.68;100626.90;111110;244;161040;-52
2024/03/17 11:27:00;;;;;;;;;2.00;2.00;;;;;6.73;70.42;100628.79;111278;257;38983;-53
2024/03/17 11:29:35;;;;;;;;;2.00;1.00;;;;;6.66;70.46;100632.58;111117;244;160504;-53
2024/03/17 11:32:34;;;;;;;;;2.00;2.00;;;;;6.72;70.40;100637.16;111260;257;40835;-53
2024/03/17 11:35:30;;;;;;;;;5.00;4.67;;;;;6.62;70.27;100641.44;111263;257;40113;-51
2024/03/17 11:38:06;;;;;;;;;7.00;5.00;;;;;6.52;70.21;100646.84;111240;258;41631;-51
2024/03/17 11:40:43;;;;;;;;;6.00;4.75;;;;;6.42;70.43;100653.64;111198;257;41049;-51
2024/03/17 11:43:27;;;;;;;;;6.00;5.00;;;;;6.36;70.81;100649.75;111217;244;160198;-50
2024/03/17 11:46:14;;;;;;;;;4.00;3.00;;;;;6.32;71.08;100645.89;111221;257;39241;-52
2024/03/17 11:48:49;;;;;;;;;4.00;4.00;;;;;6.39;71.42;100643.92;111053;245;160829;-51
2024/03/17 11:51:25;;;;;;;;;3.00;2.50;;;;;6.53;71.26;100644.06;111278;257;39817;-52
2024/03/17 11:54:14;;;;;;;;;2.75;2.00;;;;;6.66;71.38;100637.95;111154;244;160547;-52
2024/03/17 11:56:55;;;;;;;;;4.00;3.00;;;;;6.77;71.24;100638.98;111270;257;40856;-56
2024/03/17 11:59:37;;;;;;;;;5.00;2.00;;;;;6.86;71.32;100637.56;111212;257;160073;-54
2024/03/17 12:02:29;;;;;;;;;4.00;3.00;;;;;6.94;71.30;100634.40;111174;257;40794;-54
2024/03/17 12:05:10;;;;;;;;;4.67;4.00;;;;;6.93;70.59;100632.70;111225;257;39689;-51
2024/03/17 12:07:56;;;;;;;;;1.50;1.00;;;;;6.99;70.81;100631.39;111116;244;160426;-58
2024/03/17 12:10:30;;;;;;;;;3.00;3.00;;;;;7.19;70.77;100625.18;111211;257;39246;-54
2024/03/17 12:13:05;;;;;;;;;2.50;2.25;;;;;7.36;70.90;100625.82;111147;244;160291;-54
2024/03/17 12:15:41;;;;;;;;;3.67;2.00;;;;;7.56;70.54;100620.80;111270;257;40443;-55
2024/03/17 12:18:31;;;;;;;;;2.50;2.25;;;;;7.65;69.91;100620.52;111087;244;160818;-56
2024/03/17 12:21:17;;;;;;;;;4.33;3.00;;;;;7.66;69.59;100619.84;111278;257;40492;-54
2024/03/17 12:24:03;;;;;;;;;4.00;3.00;;;;;7.76;69.52;100621.48;111119;244;161141;-52
2024/03/17 12:26:48;;;;;;;;;4.00;3.00;;;;;7.87;69.26;100620.63;111187;257;39602;-51
2024/03/17 12:29:32;;;;;;;;;2.00;2.00;;;;;7.97;69.33;100615.92;111275;257;39804;-51